Time;durP1;ratioP1;P1;durP2;ratioP2;P2;SDS_P1;SDS_P2;PMS_P1;PMS_P2;Temp;Humidity;BMP_temperature;BMP_pressure;BME280_temperature;BME280_humidity;BME280_pressure;Samples;Min_cycle;Max_cycle;Signal;HPM_P1;HPM_P2
2023/03/29 00:01:35;;;;;;;7.43;3.95;;;5.70;99.90;;;;;;7371263;19;20114;-66
2023/03/29 00:04:03;;;;;;;6.82;3.72;;;5.70;99.90;;;;;;7368854;19;20026;-65
2023/03/29 00:06:31;;;;;;;7.88;3.63;;;5.70;99.90;;;;;;7369399;19;20022;-65
2023/03/29 00:08:58;;;;;;;8.57;3.83;;;5.70;99.90;;;;;;7364952;19;20025;-66
2023/03/29 00:11:26;;;;;;;5.70;3.90;;;5.70;99.90;;;;;;7369640;19;20674;-66
2023/03/29 00:13:52;;;;;;;6.30;4.03;;;5.70;99.90;;;;;;7367372;19;20049;-66
2023/03/29 00:16:19;;;;;;;5.95;4.38;;;5.70;99.90;;;;;;7368291;19;20025;-66
2023/03/29 00:18:45;;;;;;;4.60;3.55;;;5.60;99.90;;;;;;7367695;19;20393;-66
2023/03/29 00:21:11;;;;;;;7.90;4.43;;;5.60;99.90;;;;;;7367097;19;20065;-66
2023/03/29 00:23:38;;;;;;;8.98;4.70;;;5.60;99.90;;;;;;7366558;19;20522;-64
2023/03/29 00:26:06;;;;;;;7.82;3.95;;;5.60;99.90;;;;;;7366748;19;20042;-65
2023/03/29 00:28:32;;;;;;;9.32;4.82;;;5.60;99.90;;;;;;7367942;19;20019;-64
2023/03/29 00:31:07;;;;;;;7.38;4.10;;;5.60;99.90;;;;;;7364880;19;20380;-65
2023/03/29 00:33:34;;;;;;;8.32;4.40;;;5.60;99.90;;;;;;7351703;19;20102;-66
2023/03/29 00:36:00;;;;;;;7.07;4.55;;;5.60;99.90;;;;;;7366206;19;20046;-66
2023/03/29 00:38:27;;;;;;;8.77;4.78;;;5.60;99.90;;;;;;7368610;19;20022;-66
2023/03/29 00:40:53;;;;;;;7.47;4.72;;;5.60;99.90;;;;;;7367879;19;20092;-65
2023/03/29 00:43:19;;;;;;;10.30;4.72;;;5.60;99.90;;;;;;7367932;19;20014;-65
2023/03/29 00:45:46;;;;;;;7.35;4.85;;;5.60;99.90;;;;;;7371722;19;20102;-65
2023/03/29 00:48:16;;;;;;;6.93;4.40;;;5.60;99.90;;;;;;7378310;19;20011;-65
2023/03/29 00:50:50;;;;;;;8.52;5.47;;;5.60;99.90;;;;;;7375726;19;20014;-65
2023/03/29 00:53:25;;;;;;;8.27;5.45;;;5.60;99.90;;;;;;7377050;19;20049;-66
2023/03/29 00:56:06;;;;;;;9.80;5.18;;;5.50;99.90;;;;;;7377437;19;20014;-66
2023/03/29 00:59:08;;;;;;;12.45;5.93;;;5.60;99.90;;;;;;7374055;19;20022;-65
2023/03/29 01:01:46;;;;;;;11.02;5.30;;;5.60;99.90;;;;;;7376895;19;20037;-66
2023/03/29 01:04:31;;;;;;;11.25;5.70;;;5.60;99.90;;;;;;7375537;19;20018;-65
2023/03/29 01:07:12;;;;;;;7.85;5.75;;;5.50;99.90;;;;;;7375431;19;20105;-66
2023/03/29 01:09:44;;;;;;;9.10;5.30;;;5.60;99.90;;;;;;7373696;19;20058;-66
2023/03/29 01:12:18;;;;;;;7.55;5.53;;;5.60;99.90;;;;;;7371907;19;20023;-67
2023/03/29 01:15:04;;;;;;;8.73;5.57;;;5.60;99.90;;;;;;7370797;19;20248;-67
2023/03/29 01:17:31;;;;;;;10.40;5.45;;;5.50;99.90;;;;;;7372367;19;20478;-67
2023/03/29 01:20:13;;;;;;;9.68;6.32;;;5.50;99.90;;;;;;7367919;19;20018;-66
2023/03/29 01:23:04;;;;;;;9.90;5.22;;;5.50;99.90;;;;;;7370812;19;20427;-66
2023/03/29 01:25:58;;;;;;;8.77;6.35;;;5.50;99.90;;;;;;7370778;19;20018;-67
2023/03/29 01:28:34;;;;;;;7.70;5.57;;;5.40;99.90;;;;;;7372453;19;20035;-66
2023/03/29 01:31:10;;;;;;;10.48;6.25;;;5.40;99.90;;;;;;7370897;19;20015;-66
2023/03/29 01:33:45;;;;;;;10.00;5.72;;;5.40;99.90;;;;;;7368196;19;20666;-66
2023/03/29 01:36:40;;;;;;;8.93;5.95;;;5.40;99.90;;;;;;7366209;19;20926;-67
2023/03/29 01:39:07;;;;;;;9.60;5.70;;;5.50;99.90;;;;;;7371172;19;20031;-66
2023/03/29 01:41:42;;;;;;;7.45;5.63;;;5.50;99.90;;;;;;7371833;19;20129;-66
2023/03/29 01:44:16;;;;;;;10.20;6.07;;;5.50;99.90;;;;;;7375038;19;20599;-66
2023/03/29 01:47:04;;;;;;;8.48;5.63;;;5.50;99.90;;;;;;7373551;19;20492;-66
2023/03/29 01:49:41;;;;;;;9.10;6.25;;;5.50;99.90;;;;;;7375219;19;20505;-66
2023/03/29 01:52:24;;;;;;;7.70;5.97;;;5.50;99.90;;;;;;7372191;19;20134;-66
2023/03/29 01:55:14;;;;;;;8.32;6.13;;;5.50;99.90;;;;;;7373501;19;20045;-66
2023/03/29 01:57:45;;;;;;;9.90;5.57;;;5.50;99.90;;;;;;7374924;19;20021;-66
2023/03/29 02:00:18;;;;;;;9.98;6.20;;;5.50;99.90;;;;;;7375386;19;20032;-66
2023/03/29 02:02:47;;;;;;;10.60;6.70;;;5.50;99.90;;;;;;7371073;19;20011;-65
2023/03/29 02:05:15;;;;;;;10.85;6.50;;;5.50;99.90;;;;;;7364771;19;20465;-65
2023/03/29 02:07:45;;;;;;;8.43;6.15;;;5.50;99.90;;;;;;7372471;19;20025;-64
2023/03/29 02:10:13;;;;;;;8.63;7.40;;;5.50;99.90;;;;;;7376162;19;20018;-67
2023/03/29 02:12:41;;;;;;;9.65;6.72;;;5.50;99.90;;;;;;7369192;19;20018;-65
2023/03/29 02:15:14;;;;;;;10.65;6.80;;;5.50;99.90;;;;;;7366166;19;20010;-65
2023/03/29 02:17:40;;;;;;;9.40;7.53;;;5.50;99.90;;;;;;7366083;19;20375;-65
2023/03/29 02:20:16;;;;;;;11.35;7.22;;;5.40;99.90;;;;;;7373320;19;20029;-65
2023/03/29 02:23:03;;;;;;;9.60;7.22;;;5.40;99.90;;;;;;7374805;19;20021;-65
2023/03/29 02:25:31;;;;;;;9.57;7.05;;;5.50;99.90;;;;;;7370964;19;20018;-66
2023/03/29 02:27:58;;;;;;;10.73;6.40;;;5.50;99.90;;;;;;7368321;19;20450;-66
2023/03/29 02:30:30;;;;;;;9.43;7.15;;;5.50;99.90;;;;;;7371575;19;20808;-66
2023/03/29 02:33:09;;;;;;;8.20;6.72;;;5.50;99.90;;;;;;7368723;19;20018;-65
2023/03/29 02:35:47;;;;;;;10.82;7.82;;;5.50;99.90;;;;;;7371172;19;20025;-65
2023/03/29 02:38:14;;;;;;;10.07;7.93;;;5.50;99.90;;;;;;7369869;19;20604;-65
2023/03/29 02:40:41;;;;;;;9.52;7.60;;;5.50;99.90;;;;;;7374278;19;20018;-64
2023/03/29 02:43:13;;;;;;;11.57;8.30;;;5.50;99.90;;;;;;7372623;19;20071;-65
2023/03/29 02:45:41;;;;;;;12.05;8.38;;;5.50;99.90;;;;;;7372325;19;20039;-65
2023/03/29 02:48:10;;;;;;;13.38;9.00;;;5.50;99.90;;;;;;7371959;19;20022;-65
2023/03/29 02:50:39;;;;;;;14.52;8.95;;;5.50;99.90;;;;;;7372801;19;20770;-65
2023/03/29 02:53:21;;;;;;;13.50;9.38;;;5.50;99.90;;;;;;7366633;19;21063;-66
2023/03/29 02:55:48;;;;;;;13.25;8.80;;;5.50;99.90;;;;;;7368598;19;20018;-66
2023/03/29 02:58:15;;;;;;;13.23;9.98;;;5.50;99.90;;;;;;7367029;19;20018;-65
2023/03/29 03:00:47;;;;;;;11.55;8.60;;;5.50;99.90;;;;;;7370607;19;21027;-65
2023/03/29 03:03:14;;;;;;;13.05;10.45;;;5.60;99.90;;;;;;7368542;19;20585;-65
2023/03/29 03:05:42;;;;;;;14.82;10.93;;;5.60;99.90;;;;;;7368919;19;20059;-65
2023/03/29 03:08:08;;;;;;;14.50;10.30;;;5.60;99.90;;;;;;7367007;19;20019;-65
2023/03/29 03:10:35;;;;;;;14.68;10.52;;;5.50;99.90;;;;;;7368600;19;20018;-65
2023/03/29 03:13:03;;;;;;;15.23;11.07;;;5.50;99.90;;;;;;7366825;19;20026;-65
2023/03/29 03:15:34;;;;;;;18.92;11.18;;;5.60;99.90;;;;;;7366280;19;20777;-66
2023/03/29 03:18:02;;;;;;;17.25;11.77;;;5.60;99.90;;;;;;7363671;19;20018;-64
2023/03/29 03:20:29;;;;;;;14.90;11.30;;;5.60;99.90;;;;;;7366560;19;20817;-65
2023/03/29 03:22:56;;;;;;;16.13;12.25;;;5.60;99.90;;;;;;7369392;19;20023;-66
2023/03/29 03:25:23;;;;;;;16.38;12.57;;;5.60;99.90;;;;;;7371446;19;20771;-66
2023/03/29 03:27:50;;;;;;;21.98;12.32;;;5.60;99.90;;;;;;7364677;19;20018;-66
2023/03/29 03:30:19;;;;;;;15.15;11.90;;;5.60;99.90;;;;;;7370790;19;20042;-65
2023/03/29 03:32:53;;;;;;;17.88;12.68;;;5.60;99.90;;;;;;7368980;19;20022;-65
2023/03/29 03:35:31;;;;;;;15.93;12.32;;;5.60;99.90;;;;;;7371180;19;20018;-64
2023/03/29 03:37:58;;;;;;;16.88;12.98;;;5.60;99.90;;;;;;7369529;19;20126;-65
2023/03/29 03:40:24;;;;;;;16.42;12.63;;;5.60;99.90;;;;;;7371236;19;20466;-65
2023/03/29 03:42:51;;;;;;;14.93;11.68;;;5.60;99.90;;;;;;7370807;19;20854;-65
2023/03/29 03:45:17;;;;;;;18.92;12.80;;;5.70;99.90;;;;;;7373464;19;20798;-65
2023/03/29 03:47:52;;;;;;;14.65;13.00;;;5.60;99.90;;;;;;7370437;19;20358;-66
2023/03/29 03:50:37;;;;;;;17.23;12.60;;;5.70;99.90;;;;;;7371231;19;20524;-66
2023/03/29 03:53:03;;;;;;;17.75;13.82;;;5.70;99.90;;;;;;7366803;19;20031;-66
2023/03/29 03:55:54;;;;;;;18.83;12.85;;;5.70;99.90;;;;;;7369032;19;20817;-65
2023/03/29 03:58:24;;;;;;;16.98;12.98;;;5.70;99.90;;;;;;7369635;19;20014;-64
2023/03/29 04:00:54;;;;;;;16.08;12.75;;;5.70;99.90;;;;;;7365666;19;20721;-65
2023/03/29 04:03:38;;;;;;;19.42;13.65;;;5.70;99.90;;;;;;7368995;19;20085;-65
2023/03/29 04:06:05;;;;;;;13.90;12.38;;;5.70;99.90;;;;;;7367666;19;20018;-65
2023/03/29 04:08:52;;;;;;;16.83;13.45;;;5.70;99.90;;;;;;7369654;19;20022;-66
2023/03/29 04:11:28;;;;;;;17.38;13.68;;;5.70;99.90;;;;;;7366703;19;20018;-65
2023/03/29 04:13:56;;;;;;;16.88;12.77;;;5.70;99.90;;;;;;7366358;19;20033;-65
2023/03/29 04:16:48;;;;;;;17.33;13.15;;;5.70;99.90;;;;;;7363450;19;20023;-65
2023/03/29 04:19:35;;;;;;;20.42;13.02;;;5.70;99.90;;;;;;7368826;19;20022;-65
2023/03/29 04:22:03;;;;;;;17.80;13.85;;;5.70;99.90;;;;;;7365978;19;20026;-65
2023/03/29 04:24:30;;;;;;;18.30;13.02;;;5.70;99.90;;;;;;7365096;19;20023;-66
2023/03/29 04:27:17;;;;;;;21.05;13.57;;;5.70;99.90;;;;;;7366369;19;20018;-64
2023/03/29 04:29:44;;;;;;;18.83;12.65;;;5.70;99.90;;;;;;7360679;19;20050;-66
2023/03/29 04:32:19;;;;;;;18.88;12.60;;;5.80;99.90;;;;;;7366476;19;20757;-66
2023/03/29 04:34:58;;;;;;;18.23;12.77;;;5.80;99.90;;;;;;7367088;19;20021;-65
2023/03/29 04:37:24;;;;;;;14.55;11.95;;;5.80;99.90;;;;;;7371918;19;20087;-65
2023/03/29 04:39:53;;;;;;;18.10;12.40;;;5.80;99.90;;;;;;7363966;19;20015;-66
2023/03/29 04:42:20;;;;;;;16.48;13.90;;;5.80;99.90;;;;;;7367559;19;20026;-66
2023/03/29 04:44:46;;;;;;;16.45;12.77;;;5.80;99.90;;;;;;7367381;19;20026;-66
2023/03/29 04:47:18;;;;;;;14.70;11.20;;;5.80;99.90;;;;;;7365678;19;20039;-65
2023/03/29 04:49:52;;;;;;;15.57;11.38;;;5.80;99.90;;;;;;7361006;19;20029;-66
2023/03/29 04:52:31;;;;;;;16.00;11.13;;;5.80;99.90;;;;;;7365162;19;20014;-66
2023/03/29 04:55:00;;;;;;;14.98;12.23;;;5.80;99.90;;;;;;7364040;19;20026;-66
2023/03/29 04:57:58;;;;;;;16.45;12.35;;;5.90;99.90;;;;;;7363157;19;20018;-65
2023/03/29 05:00:34;;;;;;;17.40;12.15;;;5.90;99.90;;;;;;7362962;19;20500;-65
2023/03/29 05:03:19;;;;;;;14.68;12.48;;;5.90;99.90;;;;;;7366204;19;20025;-65
2023/03/29 05:06:07;;;;;;;16.63;11.88;;;5.90;99.90;;;;;;7366167;19;20017;-65
2023/03/29 05:08:39;;;;;;;18.02;12.13;;;5.90;99.90;;;;;;7366616;19;20018;-65
2023/03/29 05:11:19;;;;;;;15.95;11.75;;;5.90;99.90;;;;;;7364888;19;20019;-66
2023/03/29 05:13:45;;;;;;;15.65;11.52;;;5.90;99.90;;;;;;7362639;19;20026;-65
2023/03/29 05:16:11;;;;;;;19.02;13.40;;;5.90;99.90;;;;;;7366106;19;20888;-65
2023/03/29 05:18:38;;;;;;;20.48;14.50;;;5.90;99.90;;;;;;7359834;19;20014;-54
2023/03/29 05:21:05;;;;;;;16.15;13.10;;;6.00;99.90;;;;;;7360110;19;20014;-67
2023/03/29 05:23:33;;;;;;;16.73;12.73;;;5.90;99.90;;;;;;7363204;19;20039;-67
2023/03/29 05:26:21;;;;;;;21.80;14.00;;;5.80;99.90;;;;;;7364136;19;20039;-68
2023/03/29 05:28:50;;;;;;;17.23;13.63;;;5.80;99.90;;;;;;7362113;19;20018;-67
2023/03/29 05:31:17;;;;;;;18.67;13.98;;;5.80;99.90;;;;;;7363196;19;20023;-68
2023/03/29 05:33:47;;;;;;;17.85;13.88;;;5.80;99.90;;;;;;7368156;19;20025;-67
2023/03/29 05:36:15;;;;;;;17.13;13.63;;;5.70;99.90;;;;;;7370721;19;20022;-68
2023/03/29 05:38:48;;;;;;;19.15;13.95;;;5.70;99.90;;;;;;7373601;19;20026;-68
2023/03/29 05:41:16;;;;;;;17.05;13.57;;;5.70;99.90;;;;;;7372179;19;20054;-68
2023/03/29 05:44:01;;;;;;;21.95;14.25;;;5.70;99.90;;;;;;7372931;19;20604;-68
2023/03/29 05:46:29;;;;;;;17.83;14.77;;;5.70;99.90;;;;;;7372490;19;20018;-69
2023/03/29 05:48:57;;;;;;;17.55;13.52;;;5.70;99.90;;;;;;7373297;19;20014;-69
2023/03/29 05:51:36;;;;;;;19.98;13.23;;;5.70;99.90;;;;;;7370136;19;20021;-68
2023/03/29 05:54:07;;;;;;;20.10;13.30;;;5.70;99.90;;;;;;7372634;19;20085;-67
2023/03/29 05:56:34;;;;;;;17.38;13.32;;;5.70;99.90;;;;;;7371522;19;20022;-68
2023/03/29 05:59:00;;;;;;;18.40;13.75;;;5.70;99.90;;;;;;7371744;19;20035;-68
2023/03/29 06:01:27;;;;;;;21.20;14.73;;;5.70;99.90;;;;;;7364629;19;20022;-68
2023/03/29 06:04:00;;;;;;;20.67;13.63;;;5.70;99.90;;;;;;7371116;19;20090;-67
2023/03/29 06:06:35;;;;;;;19.70;14.88;;;5.70;99.90;;;;;;7369697;19;20034;-67
2023/03/29 06:09:02;;;;;;;20.42;14.55;;;5.70;99.90;;;;;;7371674;19;20834;-67
2023/03/29 06:11:35;;;;;;;19.40;13.50;;;5.70;99.90;;;;;;7368740;19;20044;-67
2023/03/29 06:14:23;;;;;;;19.90;14.60;;;5.80;99.90;;;;;;7373975;19;20512;-68
2023/03/29 06:16:55;;;;;;;20.33;15.15;;;5.80;99.90;;;;;;7370920;19;20018;-68
2023/03/29 06:19:23;;;;;;;24.17;15.45;;;5.80;99.90;;;;;;7369333;19;20064;-67
2023/03/29 06:21:51;;;;;;;26.17;15.52;;;5.80;99.90;;;;;;7368851;19;20047;-69
2023/03/29 06:24:23;;;;;;;18.92;14.57;;;5.90;99.90;;;;;;7372343;19;20510;-67
2023/03/29 06:26:56;;;;;;;21.13;15.02;;;5.90;99.90;;;;;;7366324;19;20025;-67
2023/03/29 06:29:23;;;;;;;18.92;15.07;;;6.00;99.90;;;;;;7372076;19;20034;-67
2023/03/29 06:31:50;;;;;;;20.65;14.27;;;6.00;99.90;;;;;;7364712;19;20408;-67
2023/03/29 06:34:39;;;;;;;19.83;13.43;;;6.10;99.90;;;;;;7368762;19;20024;-67
2023/03/29 06:37:20;;;;;;;19.20;13.30;;;6.10;99.90;;;;;;7373763;19;20106;-67
2023/03/29 06:39:52;;;;;;;16.98;12.80;;;6.20;99.90;;;;;;7368569;19;20054;-67
2023/03/29 06:42:39;;;;;;;18.65;13.38;;;6.20;99.90;;;;;;7366314;19;20736;-67
2023/03/29 06:45:25;;;;;;;16.63;12.82;;;6.20;99.90;;;;;;7371265;19;20761;-66
2023/03/29 06:47:53;;;;;;;16.85;12.60;;;6.20;99.90;;;;;;7368282;19;20041;-67
2023/03/29 06:50:19;;;;;;;19.13;12.65;;;6.20;99.90;;;;;;7371409;19;20028;-68
2023/03/29 06:52:53;;;;;;;18.73;12.85;;;6.30;99.90;;;;;;7365765;19;20022;-66
2023/03/29 06:55:20;;;;;;;16.98;12.23;;;6.30;99.90;;;;;;7369350;19;20746;-66
2023/03/29 06:57:49;;;;;;;16.38;11.77;;;6.30;99.90;;;;;;7364532;19;20026;-66
2023/03/29 07:00:18;;;;;;;14.30;12.70;;;6.30;99.90;;;;;;7372002;19;20015;-67
2023/03/29 07:03:08;;;;;;;16.50;11.82;;;6.40;99.90;;;;;;7368269;19;20029;-66
2023/03/29 07:05:39;;;;;;;15.98;12.35;;;6.40;99.90;;;;;;7368615;19;20018;-67
2023/03/29 07:10:51;;;;;;;15.50;12.30;;;6.50;99.90;;;;;;7368373;19;20461;-67
2023/03/29 07:13:40;;;;;;;15.85;12.15;;;6.50;99.90;;;;;;7369950;19;20489;-67
2023/03/29 07:16:12;;;;;;;16.20;11.13;;;6.50;99.90;;;;;;7365589;19;20533;-67
2023/03/29 07:18:45;;;;;;;18.65;11.85;;;6.50;99.90;;;;;;7371391;19;20106;-68
2023/03/29 07:21:23;;;;;;;15.65;11.77;;;6.60;99.90;;;;;;7367240;19;20025;-67
2023/03/29 07:23:51;;;;;;;17.77;11.60;;;6.60;99.90;;;;;;7369111;19;20018;-68
2023/03/29 07:26:19;;;;;;;16.17;11.25;;;6.70;99.90;;;;;;7368713;19;20014;-68
2023/03/29 07:28:50;;;;;;;12.93;11.25;;;6.70;99.90;;;;;;7368103;19;20022;-67
2023/03/29 07:31:18;;;;;;;12.07;9.98;;;6.70;99.90;;;;;;7370540;19;20029;-67
2023/03/29 07:33:52;;;;;;;12.50;10.38;;;6.80;99.90;;;;;;7362848;19;20777;-69
2023/03/29 07:36:19;;;;;;;12.82;11.07;;;6.80;99.90;;;;;;7369737;19;20033;-69
2023/03/29 07:38:48;;;;;;;15.02;11.10;;;6.80;99.90;;;;;;7370643;19;20014;-67
2023/03/29 07:41:18;;;;;;;13.60;10.55;;;6.90;99.90;;;;;;7364014;19;20011;-65
2023/03/29 07:43:45;;;;;;;15.23;10.85;;;6.90;99.90;;;;;;7367939;19;20024;-67
2023/03/29 07:46:13;;;;;;;13.73;10.52;;;6.90;99.90;;;;;;7369668;19;20018;-68
2023/03/29 07:48:43;;;;;;;15.23;10.57;;;6.90;99.90;;;;;;7370271;19;20011;-67
2023/03/29 07:51:13;;;;;;;12.75;10.00;;;6.90;99.90;;;;;;7367549;19;20490;-70
2023/03/29 07:53:44;;;;;;;13.57;11.02;;;7.00;99.90;;;;;;7367818;19;20836;-69
2023/03/29 07:56:41;;;;;;;14.65;11.25;;;7.00;99.90;;;;;;7370339;19;20865;-68
2023/03/29 07:59:16;;;;;;;14.38;10.27;;;7.10;99.90;;;;;;7369087;19;20560;-69
2023/03/29 08:01:49;;;;;;;11.18;9.60;;;7.10;99.90;;;;;;7367426;19;20021;-69
2023/03/29 08:04:55;;;;;;;13.48;9.50;;;7.10;99.90;;;;;;7364304;19;20021;-70
2023/03/29 08:07:42;;;;;;;19.65;11.15;;;7.20;99.90;;;;;;7368265;19;20060;-70
2023/03/29 08:10:17;;;;;;;15.27;9.95;;;7.30;99.90;;;;;;7371661;19;20102;-67
2023/03/29 08:13:10;;;;;;;12.90;10.18;;;7.30;99.90;;;;;;7364518;19;20047;-67
2023/03/29 08:15:47;;;;;;;14.15;9.45;;;7.30;99.90;;;;;;7368677;19;20114;-70
2023/03/29 08:18:34;;;;;;;12.77;9.60;;;7.40;99.90;;;;;;7365101;19;20094;-66
2023/03/29 08:21:01;;;;;;;13.90;9.55;;;7.50;99.90;;;;;;7364745;19;20118;-66
2023/03/29 08:23:27;;;;;;;11.65;9.80;;;7.50;99.90;;;;;;7368810;19;20015;-67
2023/03/29 08:26:07;;;;;;;11.13;8.93;;;7.60;99.90;;;;;;7365527;19;20022;-67
2023/03/29 08:28:34;;;;;;;11.07;9.77;;;7.80;99.90;;;;;;7366711;19;21792;-67
2023/03/29 08:31:01;;;;;;;12.50;9.40;;;7.90;99.90;;;;;;7362369;19;20755;-68
2023/03/29 08:33:28;;;;;;;12.05;9.18;;;8.00;99.90;;;;;;7366320;19;20378;-68
2023/03/29 08:36:21;;;;;;;10.95;8.95;;;8.10;99.90;;;;;;7369185;19;20102;-67
2023/03/29 08:38:49;;;;;;;10.75;8.85;;;8.20;99.90;;;;;;7367428;19;20078;-67
2023/03/29 08:41:40;;;;;;;12.57;8.60;;;8.20;99.90;;;;;;7368344;19;20025;-68
2023/03/29 08:44:19;;;;;;;11.18;8.27;;;8.30;99.90;;;;;;7364142;19;20486;-68
2023/03/29 08:47:00;;;;;;;10.77;8.63;;;8.30;99.90;;;;;;7368122;19;20990;-71
2023/03/29 08:49:35;;;;;;;12.60;9.48;;;8.40;99.90;;;;;;7368017;19;20022;-71
2023/03/29 08:52:10;;;;;;;10.68;8.77;;;8.50;99.90;;;;;;7366053;19;20018;-71
2023/03/29 08:54:45;;;;;;;12.90;8.93;;;8.60;99.90;;;;;;7367143;19;20037;-71
2023/03/29 08:57:46;;;;;;;13.15;9.48;;;8.80;99.90;;;;;;7367499;19;20029;-71
2023/03/29 09:00:35;;;;;;;12.70;9.15;;;8.90;99.90;;;;;;7365344;19;20043;-71
2023/03/29 09:03:07;;;;;;;10.07;7.78;;;9.10;99.90;;;;;;7365272;19;20113;-71
2023/03/29 09:05:43;;;;;;;36.92;29.48;;;9.20;99.90;;;;;;7367104;19;20053;-54
2023/03/29 09:08:23;;;;;;;12.75;9.00;;;9.50;99.90;;;;;;7373031;19;20027;-67
2023/03/29 09:11:08;;;;;;;13.55;9.05;;;9.60;99.90;;;;;;7374616;19;20031;-67
2023/03/29 09:14:04;;;;;;;11.07;8.15;;;9.70;99.90;;;;;;7369177;19;20086;-67
2023/03/29 09:16:42;;;;;;;10.45;7.70;;;9.80;99.90;;;;;;7376161;19;20022;-65
2023/03/29 09:19:38;;;;;;;11.23;7.63;;;9.80;99.90;;;;;;7371160;19;20018;-68
2023/03/29 09:22:37;;;;;;;12.00;7.93;;;9.70;99.90;;;;;;7370293;19;20109;-68
2023/03/29 09:25:12;;;;;;;11.30;7.82;;;9.60;99.90;;;;;;7370437;19;20050;-66
2023/03/29 09:27:51;;;;;;;12.60;8.35;;;9.80;99.90;;;;;;7372956;19;20018;-66
2023/03/29 09:30:59;;;;;;;13.45;7.90;;;9.90;99.90;;;;;;7371588;19;20022;-67
2023/03/29 09:33:41;;;;;;;13.85;8.93;;;9.90;99.90;;;;;;7370900;19;20018;-65
2023/03/29 09:36:23;;;;;;;9.65;7.72;;;9.80;99.90;;;;;;7370516;19;20526;-65
2023/03/29 09:38:53;;;;;;;14.55;8.52;;;9.90;99.90;;;;;;7372255;19;20010;-65
2023/03/29 09:41:46;;;;;;;10.63;7.47;;;9.90;99.90;;;;;;7370741;19;20018;-66
2023/03/29 09:44:17;;;;;;;10.48;8.77;;;10.00;99.90;;;;;;7370753;19;20810;-66
2023/03/29 09:47:24;;;;;;;13.45;8.77;;;10.20;99.90;;;;;;7371709;19;20017;-67
2023/03/29 09:49:56;;;;;;;12.48;7.68;;;10.30;99.90;;;;;;7370668;19;20949;-66
2023/03/29 09:52:26;;;;;;;15.18;9.20;;;10.50;99.90;;;;;;7372923;19;20011;-67
2023/03/29 09:55:14;;;;;;;15.38;8.13;;;10.50;99.90;;;;;;7367206;19;20139;-66
2023/03/29 09:58:12;;;;;;;13.75;8.45;;;10.50;99.90;;;;;;7372127;19;20015;-66
2023/03/29 10:00:47;;;;;;;12.07;9.70;;;10.70;99.90;;;;;;7374761;19;20034;-66
2023/03/29 10:03:23;;;;;;;13.32;9.23;;;10.60;99.90;;;;;;7366704;19;20029;-66
2023/03/29 10:06:02;;;;;;;12.20;8.40;;;10.60;99.90;;;;;;7369267;19;20957;-66
2023/03/29 10:08:34;;;;;;;14.50;9.27;;;10.60;99.90;;;;;;7370783;19;20773;-65
2023/03/29 10:11:28;;;;;;;10.23;8.57;;;10.70;99.90;;;;;;7368138;19;20054;-66
2023/03/29 10:14:16;;;;;;;14.67;10.13;;;10.60;99.90;;;;;;7367864;19;20026;-66
2023/03/29 10:16:44;;;;;;;12.32;9.80;;;10.70;99.90;;;;;;7373494;19;20263;-65
2023/03/29 10:19:20;;;;;;;14.15;9.65;;;10.80;99.90;;;;;;7370804;19;20359;-66
2023/03/29 10:21:48;;;;;;;13.13;9.65;;;10.80;99.90;;;;;;7370066;19;20019;-65
2023/03/29 10:24:19;;;;;;;13.10;9.77;;;10.80;99.90;;;;;;7370646;19;20557;-66
2023/03/29 10:26:46;;;;;;;13.97;9.97;;;10.80;99.90;;;;;;7373289;19;20032;-65
2023/03/29 10:29:13;;;;;;;22.02;11.60;;;10.80;99.90;;;;;;7371662;19;20052;-65
2023/03/29 10:31:41;;;;;;;16.70;10.10;;;10.80;99.90;;;;;;7371200;19;20932;-65
2023/03/29 10:34:12;;;;;;;14.02;10.88;;;10.80;99.90;;;;;;7366236;19;20490;-67
2023/03/29 10:36:42;;;;;;;17.77;11.07;;;10.90;99.90;;;;;;7373087;19;20451;-66
2023/03/29 10:39:12;;;;;;;14.88;11.05;;;11.00;99.90;;;;;;7370751;19;20030;-66
2023/03/29 10:41:39;;;;;;;16.48;12.15;;;11.00;99.90;;;;;;7370408;19;20029;-67
2023/03/29 10:44:05;;;;;;;14.80;11.48;;;11.10;99.90;;;;;;7370520;19;20775;-67
2023/03/29 10:46:40;;;;;;;14.55;12.20;;;11.30;99.90;;;;;;7369848;19;20026;-68
2023/03/29 10:49:18;;;;;;;13.05;11.35;;;11.30;99.90;;;;;;7371288;19;20019;-66
2023/03/29 10:51:48;;;;;;;14.80;12.18;;;11.30;99.90;;;;;;7368647;19;20042;-66
2023/03/29 10:54:20;;;;;;;15.25;10.40;;;11.40;99.90;;;;;;7370079;19;20889;-66
2023/03/29 10:56:54;;;;;;;13.93;11.35;;;11.40;99.90;;;;;;7370182;19;20637;-65
2023/03/29 10:59:37;;;;;;;13.65;11.02;;;11.40;99.90;;;;;;7372977;19;21390;-66
2023/03/29 11:02:42;;;;;;;13.60;10.55;;;11.40;99.90;;;;;;7369329;19;20018;-65
2023/03/29 11:05:35;;;;;;;12.75;9.93;;;11.70;99.90;;;;;;7364700;19;20029;-66
2023/03/29 11:08:35;;;;;;;13.05;9.98;;;11.60;99.90;;;;;;7363711;19;20078;-66
2023/03/29 11:11:28;;;;;;;13.00;10.98;;;11.60;99.90;;;;;;7366235;19;20111;-65
2023/03/29 11:14:23;;;;;;;11.95;9.85;;;11.60;99.90;;;;;;7366866;19;20885;-65
2023/03/29 11:17:32;;;;;;;12.27;9.68;;;11.80;99.90;;;;;;7370529;19;20022;-66
2023/03/29 11:20:23;;;;;;;12.27;10.05;;;12.10;99.90;;;;;;7366926;19;20022;-65
2023/03/29 11:23:24;;;;;;;12.57;9.55;;;12.30;99.90;;;;;;7369254;19;20577;-66
2023/03/29 11:25:57;;;;;;;12.35;9.25;;;12.50;99.90;;;;;;7366108;19;20821;-66
2023/03/29 11:28:39;;;;;;;15.38;9.23;;;12.70;99.90;;;;;;7366802;19;20384;-66
2023/03/29 11:31:32;;;;;;;11.65;8.70;;;12.90;99.90;;;;;;7366570;19;20026;-67
2023/03/29 11:34:17;;;;;;;11.77;9.18;;;13.00;99.90;;;;;;7367014;19;20495;-67
2023/03/29 11:37:04;;;;;;;10.35;8.57;;;13.10;99.90;;;;;;7367935;19;20036;-65
2023/03/29 11:40:12;;;;;;;11.02;8.23;;;13.20;99.90;;;;;;7368130;19;20605;-66
2023/03/29 11:42:44;;;;;;;9.85;8.68;;;13.40;99.90;;;;;;7367037;19;20062;-66
2023/03/29 11:45:24;;;;;;;11.20;8.55;;;13.70;99.90;;;;;;7367319;19;20606;-67
2023/03/29 11:47:52;;;;;;;10.80;7.80;;;14.00;99.90;;;;;;7369209;19;20652;-67
2023/03/29 11:50:27;;;;;;;9.35;7.55;;;14.00;99.90;;;;;;7366481;19;20021;-66
2023/03/29 11:53:00;;;;;;;10.40;9.27;;;14.00;99.90;;;;;;7366922;19;20018;-66
2023/03/29 11:55:32;;;;;;;12.60;8.43;;;14.00;99.90;;;;;;7366371;19;20031;-66
2023/03/29 11:58:25;;;;;;;8.52;7.43;;;14.20;99.90;;;;;;7368276;19;20018;-66
2023/03/29 12:01:05;;;;;;;9.75;7.47;;;14.40;99.90;;;;;;7370901;19;20473;-67
2023/03/29 12:03:54;;;;;;;9.98;7.93;;;14.70;99.90;;;;;;7365274;19;20474;-66
2023/03/29 12:06:24;;;;;;;11.77;8.43;;;14.50;99.90;;;;;;7368712;19;20660;-66
2023/03/29 12:08:57;;;;;;;9.73;7.68;;;14.70;99.90;;;;;;7365929;19;20032;-65
2023/03/29 12:11:30;;;;;;;13.15;7.93;;;14.80;99.90;;;;;;7372242;19;20026;-65
2023/03/29 12:14:04;;;;;;;10.88;7.47;;;14.80;99.90;;;;;;7362770;19;20042;-65
2023/03/29 12:16:35;;;;;;;8.75;7.85;;;14.70;99.90;;;;;;7366526;19;20014;-65
2023/03/29 12:19:10;;;;;;;;;;;14.60;99.90;;;;;;7368580;19;20101;-66
2023/03/29 12:21:37;;;;;;;11.02;8.05;;;14.50;99.90;;;;;;7363822;19;19926;-65
2023/03/29 12:24:04;;;;;;;8.48;7.15;;;14.40;99.90;;;;;;7366391;19;20026;-64
2023/03/29 12:26:46;;;;;;;8.98;7.78;;;14.10;99.90;;;;;;7366186;19;20014;-66
2023/03/29 12:29:21;;;;;;;11.32;7.60;;;14.00;99.90;;;;;;7366975;19;20043;-66
2023/03/29 12:32:06;;;;;;;10.18;8.32;;;13.80;99.90;;;;;;7366092;19;20022;-67
2023/03/29 12:34:56;;;;;;;10.80;8.52;;;13.60;99.90;;;;;;7368154;19;20019;-67
2023/03/29 12:37:46;;;;;;;11.30;8.13;;;13.60;99.90;;;;;;7368599;19;20025;-67
2023/03/29 12:40:44;;;;;;;11.32;8.18;;;13.70;99.90;;;;;;7366742;19;20286;-68
2023/03/29 12:43:36;;;;;;;11.68;8.48;;;13.80;99.90;;;;;;7375805;19;21667;-67
2023/03/29 12:46:31;;;;;;;11.18;8.55;;;13.70;99.90;;;;;;7371914;19;20022;-66
2023/03/29 12:49:13;;;;;;;15.60;8.95;;;13.80;99.90;;;;;;7372756;19;20018;-67
2023/03/29 12:51:40;;;;;;;;;;;13.90;99.90;;;;;;7375235;19;20022;-67
2023/03/29 12:54:14;;;;;;;11.13;8.93;;;13.90;99.90;;;;;;7371210;19;19927;-68
2023/03/29 12:57:19;;;;;;;10.98;8.45;;;14.20;99.90;;;;;;7372430;19;20579;-68
2023/03/29 12:59:48;;;;;;;12.75;8.65;;;14.20;99.90;;;;;;7379551;19;20031;-67
2023/03/29 13:02:15;;;;;;;10.77;8.13;;;14.50;99.90;;;;;;7376477;19;20019;-67
2023/03/29 13:04:41;;;;;;;11.80;8.30;;;14.60;99.90;;;;;;7375160;19;20078;-67
2023/03/29 13:07:15;;;;;;;12.73;9.23;;;14.70;99.90;;;;;;7369301;19;20086;-66
2023/03/29 13:09:50;;;;;;;10.77;8.43;;;14.50;99.90;;;;;;7374923;19;20064;-68
2023/03/29 13:12:23;;;;;;;11.95;8.93;;;14.30;99.90;;;;;;7375062;19;20027;-67
2023/03/29 13:14:59;;;;;;;11.48;8.63;;;14.40;99.90;;;;;;7375241;19;20029;-68
2023/03/29 13:17:51;;;;;;;12.15;9.70;;;14.40;99.90;;;;;;7371748;19;20018;-68
2023/03/29 13:20:44;;;;;;;10.93;9.23;;;14.30;99.90;;;;;;7373864;19;20026;-67
2023/03/29 13:23:27;;;;;;;10.38;8.90;;;14.10;99.90;;;;;;7375047;19;21391;-66
2023/03/29 13:26:32;;;;;;;12.25;9.23;;;14.00;99.90;;;;;;7369828;19;20018;-67
2023/03/29 13:29:10;;;;;;;13.45;9.05;;;14.30;99.90;;;;;;7372261;19;20752;-67
2023/03/29 13:31:46;;;;;;;12.27;9.38;;;14.40;99.90;;;;;;7376700;19;20264;-68